Chepes, Argentina
Current Conditions -  °F | °C
As of 7:00 PM on Thursday 27 Nov 2014 (Local Time) from SACO Reporting Station
Clear Clear  
Wind Chill: 82°   Ceiling: Unl
Heat Index: 82°   Visibility: 6mi
Dew Point: 48°   Wind: 14mph
Humidity: 30%   Direction: 20°NNE
Pressure: 29.91"   Gusts: NA
Location:  31.35°S, 66.58°W
Report Text: SACO 272200Z 02012KT CAVOK 28/09 Q1013
Loading
Personal Weather Stations






























Interactive Weather Map New forecast layout! Learn more

10-Day Weather Forecast

Advertisements
Track Severe Weather on mobile